createdAt,value
2023-02-27T00:01:33.393Z,5.82
2023-02-27T00:04:01.768Z,5.91
2023-02-27T00:06:29.929Z,6.10
2023-02-27T00:08:58.053Z,6.14
2023-02-27T00:11:26.945Z,6.18
2023-02-27T00:13:55.152Z,6.26
2023-02-27T00:16:23.235Z,6.13
2023-02-27T00:18:51.188Z,5.94
2023-02-27T00:21:19.358Z,5.88
2023-02-27T00:23:47.429Z,6.00
2023-02-27T00:26:15.474Z,6.20
2023-02-27T00:28:43.473Z,6.27
2023-02-27T00:31:11.686Z,6.39
2023-02-27T00:33:40.736Z,6.49
2023-02-27T00:36:10.549Z,6.56
2023-02-27T00:38:41.184Z,6.56
2023-02-27T00:41:09.157Z,6.56
2023-02-27T00:43:37.172Z,6.57
2023-02-27T00:46:05.543Z,6.49
2023-02-27T00:48:33.643Z,6.71
2023-02-27T00:51:02.732Z,6.62
2023-02-27T00:53:30.719Z,6.54
2023-02-27T00:55:58.685Z,6.69
2023-02-27T00:58:26.759Z,6.75
2023-02-27T01:00:55.931Z,6.48
2023-02-27T01:03:23.918Z,6.30
2023-02-27T01:05:52.502Z,6.42
2023-02-27T01:08:20.944Z,6.64
2023-02-27T01:10:49.056Z,6.94
2023-02-27T01:13:17.228Z,7.01
2023-02-27T01:15:45.316Z,7.05
2023-02-27T01:18:13.265Z,7.07
2023-02-27T01:20:41.545Z,6.86
2023-02-27T01:23:09.819Z,6.80
2023-02-27T01:25:38.120Z,6.82
2023-02-27T01:28:06.989Z,6.71
2023-02-27T01:30:35.070Z,6.64
2023-02-27T01:33:03.541Z,6.58
2023-02-27T01:35:32.469Z,6.47
2023-02-27T01:38:00.907Z,6.41
2023-02-27T01:40:29.005Z,6.23
2023-02-27T01:42:57.096Z,6.23
2023-02-27T01:45:30.381Z,6.36
2023-02-27T01:48:24.627Z,6.43
2023-02-27T01:51:02.040Z,6.33
2023-02-27T01:53:31.592Z,6.36
2023-02-27T01:56:02.556Z,6.21
2023-02-27T01:58:31.647Z,6.23
2023-02-27T02:01:00.202Z,6.26
2023-02-27T02:03:28.401Z,6.46
2023-02-27T02:05:57.346Z,6.60
2023-02-27T02:08:28.440Z,6.57
2023-02-27T02:10:59.562Z,6.54
2023-02-27T02:13:27.922Z,6.47
2023-02-27T02:16:09.038Z,6.54
2023-02-27T02:18:54.609Z,6.49
2023-02-27T02:21:34.931Z,6.43
2023-02-27T02:24:21.884Z,6.46
2023-02-27T02:27:19.091Z,6.54
2023-02-27T02:29:48.152Z,6.70
2023-02-27T02:32:39.134Z,6.64
2023-02-27T02:35:07.292Z,6.41
2023-02-27T02:37:53.712Z,6.30
2023-02-27T02:40:22.059Z,6.30
2023-02-27T02:42:52.364Z,6.18
2023-02-27T02:45:36.771Z,6.07
2023-02-27T02:48:05.234Z,6.08
2023-02-27T02:50:36.631Z,6.09
2023-02-27T02:53:10.956Z,5.97
2023-02-27T02:55:51.363Z,6.07
2023-02-27T02:58:19.537Z,5.92
2023-02-27T03:00:57.950Z,6.04
2023-02-27T03:03:32.162Z,6.25
2023-02-27T03:06:09.633Z,6.44
2023-02-27T03:08:43.335Z,6.35
2023-02-27T03:11:11.342Z,6.23
2023-02-27T03:13:42.108Z,5.89
2023-02-27T03:16:20.575Z,5.69
2023-02-27T03:19:07.528Z,5.61
2023-02-27T03:21:40.770Z,5.56
2023-02-27T03:24:10.684Z,5.40
2023-02-27T03:26:41.725Z,5.14
2023-02-27T03:29:19.518Z,5.06
2023-02-27T03:31:54.790Z,4.93
2023-02-27T03:34:36.945Z,4.96
2023-02-27T03:37:30.155Z,5.03
2023-02-27T03:40:21.614Z,5.11
2023-02-27T03:42:54.045Z,5.33
2023-02-27T03:45:35.159Z,5.59
2023-02-27T03:48:04.219Z,5.78
2023-02-27T03:50:33.021Z,5.88
2023-02-27T03:53:03.909Z,5.93
2023-02-27T03:55:36.684Z,5.95
2023-02-27T03:58:05.672Z,5.96
2023-02-27T04:00:34.769Z,5.89
2023-02-27T04:03:03.094Z,5.85
2023-02-27T04:05:31.590Z,5.85
2023-02-27T04:08:05.233Z,6.03
2023-02-27T04:11:02.687Z,6.07
2023-02-27T04:13:30.754Z,5.93
2023-02-27T04:16:04.692Z,5.82
2023-02-27T04:18:42.528Z,5.88
2023-02-27T04:21:18.994Z,5.98
2023-02-27T04:23:59.538Z,5.94
2023-02-27T04:26:30.012Z,5.87
2023-02-27T04:29:07.958Z,5.83
2023-02-27T04:31:46.355Z,5.78
2023-02-27T04:34:26.344Z,5.74
2023-02-27T04:36:54.348Z,5.63
2023-02-27T04:39:27.821Z,5.59
2023-02-27T04:42:00.476Z,5.55
2023-02-27T04:44:30.091Z,5.48
2023-02-27T04:46:59.848Z,5.53
2023-02-27T04:49:29.914Z,5.56
2023-02-27T04:52:02.303Z,5.60
2023-02-27T04:54:33.304Z,5.58
2023-02-27T04:57:04.407Z,5.60
2023-02-27T04:59:40.038Z,5.48
2023-02-27T05:02:11.286Z,5.19
2023-02-27T05:04:42.149Z,5.13
2023-02-27T05:07:13.556Z,5.18
2023-02-27T05:09:57.163Z,5.32
2023-02-27T05:12:30.078Z,5.45
2023-02-27T05:15:04.090Z,5.46
2023-02-27T05:17:35.275Z,5.49
2023-02-27T05:20:12.310Z,5.62
2023-02-27T05:22:40.412Z,5.64
2023-02-27T05:25:14.277Z,5.50
2023-02-27T05:27:51.563Z,5.60
2023-02-27T05:30:19.570Z,5.54
2023-02-27T05:32:56.663Z,5.21
2023-02-27T05:35:29.073Z,5.28
2023-02-27T05:38:03.653Z,5.23
2023-02-27T05:40:34.483Z,5.09
2023-02-27T05:43:05.859Z,4.92
2023-02-27T05:45:36.994Z,4.93
2023-02-27T05:48:08.537Z,4.83
2023-02-27T05:50:38.160Z,4.65
2023-02-27T05:53:11.671Z,4.51
2023-02-27T05:55:44.358Z,4.37
2023-02-27T05:58:30.456Z,4.44
2023-02-27T06:00:59.500Z,4.47
2023-02-27T06:03:28.555Z,4.51
2023-02-27T06:05:58.247Z,4.52
2023-02-27T06:08:26.974Z,4.50
2023-02-27T06:10:57.732Z,4.53
2023-02-27T06:13:26.539Z,4.58
2023-02-27T06:15:55.994Z,4.69
2023-02-27T06:18:24.486Z,4.93
2023-02-27T06:20:52.656Z,5.03
2023-02-27T06:23:20.722Z,5.15
2023-02-27T06:25:49.007Z,5.21
2023-02-27T06:28:17.156Z,5.08
2023-02-27T06:30:46.544Z,5.08
2023-02-27T06:33:15.035Z,5.18
2023-02-27T06:35:48.195Z,5.14
2023-02-27T06:38:16.314Z,5.24
2023-02-27T06:40:44.396Z,5.25
2023-02-27T06:43:12.470Z,5.35
2023-02-27T06:45:40.750Z,5.45
2023-02-27T06:48:09.019Z,5.62
2023-02-27T06:50:36.978Z,5.72
2023-02-27T06:53:05.290Z,5.69
2023-02-27T06:55:33.822Z,5.73
2023-02-27T06:58:01.893Z,5.54
2023-02-27T07:00:30.291Z,5.53
2023-02-27T07:03:03.425Z,5.55
2023-02-27T07:05:32.253Z,5.53
2023-02-27T07:08:00.428Z,5.50
2023-02-27T07:10:29.126Z,5.54
2023-02-27T07:12:57.202Z,5.45
2023-02-27T07:15:26.082Z,5.42
2023-02-27T07:19:43.092Z,5.49
2023-02-27T07:22:11.679Z,5.52
2023-02-27T07:24:39.960Z,5.62
2023-02-27T07:27:08.134Z,5.82
2023-02-27T07:29:36.225Z,6.05
2023-02-27T07:32:04.530Z,6.12
2023-02-27T07:34:32.747Z,6.22
2023-02-27T07:37:00.944Z,6.28
2023-02-27T07:39:29.086Z,6.43
2023-02-27T07:41:57.207Z,6.47
2023-02-27T07:44:25.333Z,6.45
2023-02-27T07:46:53.773Z,6.39
2023-02-27T07:49:22.062Z,6.60
2023-02-27T07:51:50.073Z,6.79
2023-02-27T07:54:18.419Z,7.04
2023-02-27T07:56:46.716Z,7.38
2023-02-27T07:59:14.774Z,7.52
2023-02-27T08:01:42.900Z,7.51
2023-02-27T08:04:11.089Z,7.48
2023-02-27T08:06:39.912Z,7.07
2023-02-27T08:09:07.900Z,7.08
2023-02-27T08:11:35.945Z,6.97
2023-02-27T08:14:04.442Z,6.98
2023-02-27T08:16:33.649Z,7.02
2023-02-27T08:19:02.049Z,6.99
2023-02-27T08:21:30.975Z,7.02
2023-02-27T08:23:59.274Z,7.18
2023-02-27T08:26:27.803Z,7.06
2023-02-27T08:28:56.291Z,7.08
2023-02-27T08:31:25.081Z,7.00
2023-02-27T08:34:01.252Z,6.87
2023-02-27T08:36:36.340Z,6.77
2023-02-27T08:39:05.824Z,6.67
2023-02-27T08:41:34.822Z,6.61
2023-02-27T08:44:03.553Z,6.58
2023-02-27T08:46:32.292Z,6.64
2023-02-27T08:49:00.446Z,6.50
2023-02-27T08:51:29.318Z,6.25
2023-02-27T08:53:59.213Z,6.00
2023-02-27T08:56:29.051Z,6.02
2023-02-27T08:58:57.400Z,5.65
2023-02-27T09:01:28.813Z,5.41
2023-02-27T09:03:57.809Z,5.20
2023-02-27T09:06:26.450Z,5.06
2023-02-27T09:08:56.149Z,4.94
2023-02-27T09:11:24.506Z,4.84
2023-02-27T09:13:53.792Z,4.71
2023-02-27T09:16:23.538Z,4.73
2023-02-27T09:18:51.598Z,4.67
2023-02-27T09:21:20.728Z,4.60
2023-02-27T09:23:49.025Z,4.54
2023-02-27T09:26:17.710Z,4.47
2023-02-27T09:28:45.974Z,4.52
2023-02-27T09:31:14.264Z,4.59
2023-02-27T09:33:45.482Z,4.85
2023-02-27T09:36:14.067Z,4.97
2023-02-27T09:38:42.220Z,5.09
2023-02-27T09:41:39.309Z,5.19
2023-02-27T09:44:17.961Z,5.36
2023-02-27T09:46:46.639Z,5.37
2023-02-27T09:49:20.300Z,5.58
2023-02-27T09:51:53.429Z,5.89
2023-02-27T09:54:22.162Z,6.06
2023-02-27T09:56:57.297Z,6.21
2023-02-27T09:59:36.160Z,6.22
2023-02-27T10:02:23.164Z,6.51
2023-02-27T10:05:22.464Z,6.73
2023-02-27T10:08:09.251Z,6.91
2023-02-27T10:10:41.596Z,7.01
2023-02-27T10:13:26.309Z,7.21
2023-02-27T10:15:55.509Z,7.32
2023-02-27T10:18:35.751Z,7.46
2023-02-27T10:21:12.917Z,7.38
2023-02-27T10:23:49.798Z,7.42
2023-02-27T10:26:26.452Z,7.34
2023-02-27T10:28:54.644Z,7.15
2023-02-27T10:31:27.427Z,6.97
2023-02-27T10:33:58.098Z,6.91
2023-02-27T10:36:34.133Z,6.76
2023-02-27T10:39:07.870Z,6.75
2023-02-27T10:41:38.058Z,6.64
2023-02-27T10:44:06.508Z,6.59
2023-02-27T10:46:38.627Z,6.67
2023-02-27T10:49:19.156Z,7.01
2023-02-27T10:52:07.485Z,7.66
2023-02-27T10:54:35.705Z,8.11
2023-02-27T10:57:18.469Z,8.41
2023-02-27T10:59:54.115Z,8.56
2023-02-27T11:02:27.806Z,8.58
2023-02-27T11:04:59.094Z,8.36
2023-02-27T11:07:32.464Z,8.18
2023-02-27T11:10:23.606Z,8.31
2023-02-27T11:13:07.001Z,8.26
2023-02-27T11:15:38.235Z,7.94
2023-02-27T11:18:21.791Z,7.96
2023-02-27T11:20:50.922Z,8.33
2023-02-27T11:23:20.597Z,8.63
2023-02-27T11:25:49.379Z,8.41
2023-02-27T11:28:17.442Z,8.33
2023-02-27T11:30:56.566Z,8.14
2023-02-27T11:33:26.480Z,7.78
2023-02-27T11:35:58.455Z,7.19
2023-02-27T11:38:29.986Z,7.12
2023-02-27T11:41:02.169Z,7.18
2023-02-27T11:43:42.876Z,7.45
2023-02-27T11:46:46.953Z,7.75
2023-02-27T11:49:24.944Z,7.69
2023-02-27T11:52:08.381Z,7.75
2023-02-27T11:54:55.224Z,7.51
2023-02-27T11:57:39.055Z,7.44
2023-02-27T12:00:22.467Z,7.41
2023-02-27T12:02:55.360Z,7.80
2023-02-27T12:05:57.408Z,8.19
2023-02-27T12:08:49.111Z,8.54
2023-02-27T12:11:28.539Z,8.84
2023-02-27T12:14:42.328Z,8.69
2023-02-27T12:17:19.855Z,8.66
2023-02-27T12:20:22.234Z,8.66
2023-02-27T12:22:54.270Z,8.51
2023-02-27T12:25:35.241Z,8.80
2023-02-27T12:28:12.771Z,9.11
2023-02-27T12:31:08.562Z,9.21
2023-02-27T12:33:47.444Z,9.24
2023-02-27T12:36:15.948Z,9.05
2023-02-27T12:38:44.245Z,8.70
2023-02-27T12:41:44.137Z,8.83
2023-02-27T12:44:27.348Z,8.73
2023-02-27T12:47:15.978Z,8.62
2023-02-27T12:49:53.379Z,8.29
2023-02-27T12:52:26.977Z,8.09
2023-02-27T12:55:13.324Z,8.06
2023-02-27T12:57:53.391Z,8.21
2023-02-27T13:00:28.917Z,8.30
2023-02-27T13:03:05.179Z,8.09
2023-02-27T13:05:43.141Z,7.95
2023-02-27T13:08:20.298Z,7.55
2023-02-27T13:10:59.993Z,7.39
2023-02-27T13:13:44.208Z,7.43
2023-02-27T13:16:19.140Z,7.35
2023-02-27T13:19:19.691Z,7.35
2023-02-27T13:21:54.663Z,6.92
2023-02-27T13:24:28.734Z,6.53
2023-02-27T13:27:07.826Z,6.54
2023-02-27T13:29:42.111Z,6.52
2023-02-27T13:32:32.725Z,6.72
2023-02-27T13:35:17.268Z,6.73
2023-02-27T13:37:56.537Z,6.75
2023-02-27T13:40:36.668Z,6.85
2023-02-27T13:43:24.659Z,7.10
2023-02-27T13:46:00.978Z,7.17
2023-02-27T13:48:45.268Z,7.42
2023-02-27T13:51:34.701Z,7.52
2023-02-27T13:54:09.069Z,7.35
2023-02-27T13:56:37.720Z,7.30
2023-02-27T13:59:28.965Z,7.19
2023-02-27T14:01:58.771Z,7.14
2023-02-27T14:04:33.094Z,7.28
2023-02-27T14:07:12.705Z,7.60
2023-02-27T14:09:45.158Z,7.78
2023-02-27T14:12:46.575Z,7.60
2023-02-27T14:15:18.003Z,7.00
2023-02-27T14:17:50.911Z,6.64
2023-02-27T14:20:20.599Z,6.27
2023-02-27T14:23:26.230Z,6.12
2023-02-27T14:25:58.036Z,6.13
2023-02-27T14:28:37.738Z,6.08
2023-02-27T14:31:30.038Z,6.04
2023-02-27T14:34:05.396Z,6.15
2023-02-27T14:36:41.916Z,6.41
2023-02-27T14:39:26.609Z,6.56
2023-02-27T14:42:03.876Z,6.68
2023-02-27T14:44:43.704Z,7.05
2023-02-27T14:47:17.988Z,7.22
2023-02-27T14:49:47.785Z,7.55
2023-02-27T14:52:21.875Z,7.62
2023-02-27T14:54:52.156Z,7.73
2023-02-27T14:57:24.204Z,7.89
2023-02-27T14:59:54.385Z,8.02
2023-02-27T15:02:30.562Z,8.00
2023-02-27T15:05:01.923Z,7.97
2023-02-27T15:07:32.485Z,8.13
2023-02-27T15:10:04.726Z,8.04
2023-02-27T15:12:38.399Z,8.08
2023-02-27T15:15:09.148Z,7.92
2023-02-27T15:17:39.273Z,7.74
2023-02-27T15:20:29.839Z,7.76
2023-02-27T15:23:02.173Z,7.48
2023-02-27T15:25:32.000Z,7.11
2023-02-27T15:28:06.333Z,6.97
2023-02-27T15:30:34.742Z,6.88
2023-02-27T15:33:02.979Z,6.77
2023-02-27T15:35:37.101Z,6.89
2023-02-27T15:38:06.284Z,6.93
2023-02-27T15:40:34.663Z,6.95
2023-02-27T15:43:03.502Z,6.82
2023-02-27T15:45:35.254Z,6.91
2023-02-27T15:48:04.316Z,6.67
2023-02-27T15:50:36.905Z,6.43
2023-02-27T15:53:07.859Z,6.40
2023-02-27T15:55:39.830Z,6.53
2023-02-27T15:58:21.174Z,6.47
2023-02-27T16:00:52.039Z,6.34
2023-02-27T16:03:23.926Z,6.38
2023-02-27T16:05:53.357Z,6.27
2023-02-27T16:08:21.866Z,5.97
2023-02-27T16:10:51.250Z,5.84
2023-02-27T16:13:40.839Z,5.91
2023-02-27T16:16:36.101Z,5.71
2023-02-27T16:19:29.518Z,5.87
2023-02-27T16:22:14.909Z,6.07
2023-02-27T16:24:43.869Z,6.20
2023-02-27T16:27:27.646Z,5.88
2023-02-27T16:30:02.553Z,5.65
2023-02-27T16:32:40.056Z,5.49
2023-02-27T16:35:17.775Z,5.45
2023-02-27T16:37:47.973Z,5.42
2023-02-27T16:40:20.660Z,5.51
2023-02-27T16:42:49.849Z,5.66
2023-02-27T16:45:22.353Z,5.77
2023-02-27T16:47:53.275Z,5.75
2023-02-27T16:50:24.253Z,5.81
2023-02-27T16:52:52.482Z,5.89
2023-02-27T16:55:20.955Z,6.09
2023-02-27T16:57:52.593Z,6.18
2023-02-27T17:00:22.976Z,6.31
2023-02-27T17:02:52.031Z,6.42
2023-02-27T17:05:20.191Z,6.43
2023-02-27T17:07:48.781Z,6.37
2023-02-27T17:10:19.172Z,6.11
2023-02-27T17:12:48.112Z,5.82
2023-02-27T17:15:16.766Z,5.79
2023-02-27T17:17:45.427Z,5.61
2023-02-27T17:20:14.886Z,5.66
2023-02-27T17:22:45.245Z,5.76
2023-02-27T17:25:14.253Z,5.85
2023-02-27T17:27:43.899Z,5.89
2023-02-27T17:30:13.434Z,5.88
2023-02-27T17:32:41.666Z,5.89
2023-02-27T17:35:10.659Z,5.77
2023-02-27T17:37:39.030Z,5.77
2023-02-27T17:40:08.367Z,5.98
2023-02-27T17:42:37.394Z,6.03
2023-02-27T17:45:07.369Z,5.88
2023-02-27T17:47:36.182Z,5.92
2023-02-27T17:50:05.325Z,6.05
2023-02-27T17:52:36.990Z,5.88
2023-02-27T17:55:06.422Z,5.91
2023-02-27T17:57:38.689Z,5.90
2023-02-27T18:00:14.532Z,5.90
2023-02-27T18:02:46.118Z,5.83
2023-02-27T18:05:14.745Z,5.76
2023-02-27T18:07:43.228Z,5.82
2023-02-27T18:10:14.172Z,5.74
2023-02-27T18:12:43.379Z,5.71
2023-02-27T18:15:11.716Z,5.52
2023-02-27T18:17:39.805Z,5.56
2023-02-27T18:20:09.212Z,5.45
2023-02-27T18:22:37.468Z,5.28
2023-02-27T18:25:06.458Z,5.17
2023-02-27T18:27:34.509Z,4.96
2023-02-27T18:30:03.734Z,4.93
2023-02-27T18:32:31.799Z,4.89
2023-02-27T18:35:00.105Z,4.74
2023-02-27T18:37:28.247Z,4.60
2023-02-27T18:39:56.664Z,4.75
2023-02-27T18:42:24.988Z,4.75
2023-02-27T18:44:53.513Z,4.69
2023-02-27T18:47:21.688Z,4.50
2023-02-27T18:49:51.360Z,4.27
2023-02-27T18:52:19.402Z,4.28
2023-02-27T18:54:47.611Z,4.43
2023-02-27T18:57:15.990Z,4.56
2023-02-27T18:59:46.554Z,4.45
2023-02-27T19:02:18.220Z,4.59
2023-02-27T19:04:48.117Z,4.44
2023-02-27T19:07:17.481Z,4.39
2023-02-27T19:09:45.414Z,4.24
2023-02-27T19:12:13.458Z,4.09
2023-02-27T19:14:41.799Z,4.07
2023-02-27T19:17:09.901Z,4.01
2023-02-27T19:19:38.373Z,3.91
2023-02-27T19:22:06.623Z,4.02
2023-02-27T19:24:34.798Z,4.06
2023-02-27T19:27:03.065Z,3.93
2023-02-27T19:29:31.249Z,3.80
2023-02-27T19:31:59.440Z,3.87
2023-02-27T19:34:28.203Z,3.87
2023-02-27T19:36:56.258Z,4.03
2023-02-27T19:39:24.549Z,4.18
2023-02-27T19:41:52.718Z,4.01
2023-02-27T19:44:21.612Z,4.11
2023-02-27T19:46:52.225Z,4.19
2023-02-27T19:49:20.723Z,4.06
2023-02-27T19:51:48.900Z,3.86
2023-02-27T19:54:19.638Z,4.11
2023-02-27T19:56:48.120Z,3.92
2023-02-27T19:59:17.914Z,4.07
2023-02-27T20:01:45.984Z,4.17
2023-02-27T20:04:14.556Z,4.11
2023-02-27T20:06:44.969Z,4.05
2023-02-27T20:09:15.725Z,4.04
2023-02-27T20:11:45.989Z,3.92
2023-02-27T20:14:16.673Z,3.93
2023-02-27T20:16:45.485Z,3.95
2023-02-27T20:19:15.922Z,4.08
2023-02-27T20:21:46.425Z,4.16
2023-02-27T20:24:18.113Z,4.19
2023-02-27T20:26:54.014Z,3.82
2023-02-27T20:29:24.551Z,3.98
2023-02-27T20:31:55.438Z,4.02
2023-02-27T20:34:26.595Z,4.06
2023-02-27T20:36:56.452Z,4.08
2023-02-27T20:39:25.307Z,4.00
2023-02-27T20:41:53.510Z,4.06
2023-02-27T20:44:21.607Z,4.38
2023-02-27T20:46:49.831Z,4.69
2023-02-27T20:49:19.779Z,4.55
2023-02-27T20:51:47.943Z,4.62
2023-02-27T20:54:20.793Z,4.73
2023-02-27T20:56:54.533Z,4.65
2023-02-27T20:59:26.785Z,4.37
2023-02-27T21:01:55.564Z,4.28
2023-02-27T21:04:45.864Z,4.10
2023-02-27T21:07:21.400Z,3.86
2023-02-27T21:09:50.835Z,3.77
2023-02-27T21:12:18.832Z,3.89
2023-02-27T21:14:48.744Z,3.93
2023-02-27T21:17:16.774Z,4.09
2023-02-27T21:19:45.246Z,3.95
2023-02-27T21:22:19.136Z,4.06
2023-02-27T21:24:50.190Z,3.99
2023-02-27T21:27:20.858Z,3.68
2023-02-27T21:29:50.011Z,3.76
2023-02-27T21:32:18.854Z,3.64
2023-02-27T21:34:47.182Z,3.63
2023-02-27T21:37:15.361Z,3.72
2023-02-27T21:39:45.510Z,3.81
2023-02-27T21:42:13.648Z,3.56
2023-02-27T21:44:41.923Z,3.32
2023-02-27T21:47:10.307Z,3.29
2023-02-27T21:49:39.490Z,3.23
2023-02-27T21:52:07.845Z,3.24
2023-02-27T21:54:36.258Z,3.50
2023-02-27T21:57:05.574Z,3.87
2023-02-27T21:59:33.640Z,4.20
2023-02-27T22:02:02.154Z,4.61
2023-02-27T22:04:30.682Z,5.03
2023-02-27T22:06:58.957Z,5.35
2023-02-27T22:09:27.023Z,5.53
2023-02-27T22:11:55.199Z,5.77
2023-02-27T22:14:27.186Z,5.97
2023-02-27T22:16:55.538Z,5.96
2023-02-27T22:19:23.534Z,6.17
2023-02-27T22:21:51.685Z,6.16
2023-02-27T22:24:20.680Z,6.24
2023-02-27T22:26:50.368Z,6.21
2023-02-27T22:29:18.801Z,6.12
2023-02-27T22:31:46.895Z,5.86
2023-02-27T22:34:18.639Z,5.74
2023-02-27T22:36:52.646Z,5.99
2023-02-27T22:39:21.613Z,6.17
2023-02-27T22:41:50.224Z,6.28
2023-02-27T22:44:18.576Z,6.29
2023-02-27T22:46:48.686Z,6.33
2023-02-27T22:49:23.194Z,6.10
2023-02-27T22:51:52.522Z,6.25
2023-02-27T22:54:21.786Z,6.36
2023-02-27T22:56:53.968Z,6.16
2023-02-27T22:59:23.306Z,6.12
2023-02-27T23:01:51.850Z,6.10
2023-02-27T23:04:22.393Z,5.66
2023-02-27T23:06:52.683Z,5.35
2023-02-27T23:09:24.320Z,5.14
2023-02-27T23:11:53.946Z,5.02
2023-02-27T23:14:22.835Z,4.88
2023-02-27T23:16:51.688Z,4.78
2023-02-27T23:19:21.867Z,4.76
2023-02-27T23:21:50.225Z,4.78
2023-02-27T23:24:19.619Z,4.90
2023-02-27T23:26:50.724Z,5.04
2023-02-27T23:29:19.511Z,5.00
2023-02-27T23:31:48.151Z,5.06
2023-02-27T23:34:16.732Z,4.91
2023-02-27T23:36:45.159Z,5.07
2023-02-27T23:39:13.309Z,5.46
2023-02-27T23:41:41.647Z,5.77
2023-02-27T23:44:28.349Z,5.94
2023-02-27T23:46:56.517Z,6.02
2023-02-27T23:49:24.890Z,5.89
2023-02-27T23:51:53.274Z,5.74
2023-02-27T23:54:21.453Z,5.61
2023-02-27T23:56:49.731Z,5.67
2023-02-27T23:59:17.765Z,5.54
